sensor_id;sensor_type;location;lat;lon;timestamp;P1;durP1;ratioP1;P2;durP2;ratioP2
21862;SDS011;11096;51.338;12.524;2022-07-29T00:02:23;4.25;;;1.63;;
21862;SDS011;11096;51.338;12.524;2022-07-29T00:04:48;5.78;;;1.50;;
21862;SDS011;11096;51.338;12.524;2022-07-29T00:07:13;5.38;;;1.63;;
21862;SDS011;11096;51.338;12.524;2022-07-29T00:09:39;5.07;;;1.60;;
21862;SDS011;11096;51.338;12.524;2022-07-29T00:12:04;6.47;;;2.38;;
21862;SDS011;11096;51.338;12.524;2022-07-29T00:14:30;9.23;;;2.83;;
21862;SDS011;11096;51.338;12.524;2022-07-29T00:16:55;5.55;;;1.70;;
21862;SDS011;11096;51.338;12.524;2022-07-29T00:19:21;4.97;;;1.77;;
21862;SDS011;11096;51.338;12.524;2022-07-29T00:21:46;5.47;;;1.95;;
21862;SDS011;11096;51.338;12.524;2022-07-29T00:24:11;3.72;;;1.85;;
21862;SDS011;11096;51.338;12.524;2022-07-29T00:26:37;4.57;;;1.95;;
21862;SDS011;11096;51.338;12.524;2022-07-29T00:29:03;5.88;;;1.80;;
21862;SDS011;11096;51.338;12.524;2022-07-29T00:31:29;7.22;;;2.13;;
21862;SDS011;11096;51.338;12.524;2022-07-29T00:33:55;5.28;;;1.85;;
21862;SDS011;11096;51.338;12.524;2022-07-29T00:36:20;8.32;;;2.00;;
21862;SDS011;11096;51.338;12.524;2022-07-29T00:38:50;5.55;;;1.85;;
21862;SDS011;11096;51.338;12.524;2022-07-29T00:41:16;3.58;;;1.63;;
21862;SDS011;11096;51.338;12.524;2022-07-29T00:43:43;5.00;;;1.90;;
21862;SDS011;11096;51.338;12.524;2022-07-29T00:46:08;5.45;;;2.20;;
21862;SDS011;11096;51.338;12.524;2022-07-29T00:48:43;3.83;;;2.13;;
21862;SDS011;11096;51.338;12.524;2022-07-29T00:51:08;6.43;;;1.98;;
21862;SDS011;11096;51.338;12.524;2022-07-29T00:53:35;5.32;;;2.13;;
21862;SDS011;11096;51.338;12.524;2022-07-29T00:56:01;7.05;;;1.85;;
21862;SDS011;11096;51.338;12.524;2022-07-29T00:58:26;5.82;;;1.80;;
21862;SDS011;11096;51.338;12.524;2022-07-29T01:00:52;7.45;;;2.03;;
21862;SDS011;11096;51.338;12.524;2022-07-29T01:03:18;8.48;;;2.00;;
21862;SDS011;11096;51.338;12.524;2022-07-29T01:05:44;7.22;;;2.00;;
21862;SDS011;11096;51.338;12.524;2022-07-29T01:08:11;6.05;;;2.10;;
21862;SDS011;11096;51.338;12.524;2022-07-29T01:10:38;7.53;;;2.13;;
21862;SDS011;11096;51.338;12.524;2022-07-29T01:13:05;4.55;;;1.73;;
21862;SDS011;11096;51.338;12.524;2022-07-29T01:15:33;5.57;;;1.95;;
21862;SDS011;11096;51.338;12.524;2022-07-29T01:18:07;8.07;;;2.15;;
21862;SDS011;11096;51.338;12.524;2022-07-29T01:20:55;7.22;;;2.10;;
21862;SDS011;11096;51.338;12.524;2022-07-29T01:29:57;8.98;;;1.92;;
21862;SDS011;11096;51.338;12.524;2022-07-29T01:32:26;6.70;;;2.45;;
21862;SDS011;11096;51.338;12.524;2022-07-29T01:34:55;4.22;;;1.70;;
21862;SDS011;11096;51.338;12.524;2022-07-29T01:37:27;7.85;;;2.10;;
21862;SDS011;11096;51.338;12.524;2022-07-29T01:39:58;8.20;;;2.05;;
21862;SDS011;11096;51.338;12.524;2022-07-29T01:47:56;7.43;;;2.30;;
21862;SDS011;11096;51.338;12.524;2022-07-29T01:50:29;7.28;;;2.38;;
21862;SDS011;11096;51.338;12.524;2022-07-29T01:53:00;4.85;;;2.10;;
21862;SDS011;11096;51.338;12.524;2022-07-29T01:55:29;6.40;;;2.38;;
21862;SDS011;11096;51.338;12.524;2022-07-29T01:57:59;7.72;;;2.33;;
21862;SDS011;11096;51.338;12.524;2022-07-29T02:00:26;3.95;;;2.53;;
21862;SDS011;11096;51.338;12.524;2022-07-29T02:02:53;7.20;;;2.30;;
21862;SDS011;11096;51.338;12.524;2022-07-29T02:05:20;7.88;;;2.38;;
21862;SDS011;11096;51.338;12.524;2022-07-29T02:07:48;6.43;;;2.60;;
21862;SDS011;11096;51.338;12.524;2022-07-29T02:10:16;4.68;;;1.80;;
21862;SDS011;11096;51.338;12.524;2022-07-29T02:12:45;6.60;;;2.45;;
21862;SDS011;11096;51.338;12.524;2022-07-29T02:15:13;6.15;;;1.88;;
21862;SDS011;11096;51.338;12.524;2022-07-29T02:17:41;4.63;;;1.88;;
21862;SDS011;11096;51.338;12.524;2022-07-29T02:20:13;7.13;;;1.98;;
21862;SDS011;11096;51.338;12.524;2022-07-29T02:22:40;5.70;;;2.63;;
21862;SDS011;11096;51.338;12.524;2022-07-29T02:25:08;8.02;;;2.40;;
21862;SDS011;11096;51.338;12.524;2022-07-29T02:27:35;8.30;;;2.65;;
21862;SDS011;11096;51.338;12.524;2022-07-29T02:30:03;5.35;;;2.20;;
21862;SDS011;11096;51.338;12.524;2022-07-29T02:32:30;8.43;;;2.47;;
21862;SDS011;11096;51.338;12.524;2022-07-29T02:34:59;5.22;;;2.88;;
21862;SDS011;11096;51.338;12.524;2022-07-29T02:37:26;3.80;;;2.08;;
21862;SDS011;11096;51.338;12.524;2022-07-29T02:39:54;5.43;;;2.42;;
21862;SDS011;11096;51.338;12.524;2022-07-29T02:42:21;7.22;;;2.10;;
21862;SDS011;11096;51.338;12.524;2022-07-29T02:44:49;3.00;;;1.88;;
21862;SDS011;11096;51.338;12.524;2022-07-29T02:47:31;5.65;;;2.38;;
21862;SDS011;11096;51.338;12.524;2022-07-29T02:52:31;9.25;;;2.05;;
21862;SDS011;11096;51.338;12.524;2022-07-29T02:57:44;6.13;;;2.40;;
21862;SDS011;11096;51.338;12.524;2022-07-29T03:00:12;5.50;;;1.95;;
21862;SDS011;11096;51.338;12.524;2022-07-29T03:02:40;8.23;;;2.20;;
21862;SDS011;11096;51.338;12.524;2022-07-29T03:05:09;4.93;;;2.15;;
21862;SDS011;11096;51.338;12.524;2022-07-29T03:07:38;5.88;;;2.35;;
21862;SDS011;11096;51.338;12.524;2022-07-29T03:10:06;7.85;;;2.53;;
21862;SDS011;11096;51.338;12.524;2022-07-29T03:12:32;6.63;;;1.80;;
21862;SDS011;11096;51.338;12.524;2022-07-29T03:14:58;6.90;;;2.78;;
21862;SDS011;11096;51.338;12.524;2022-07-29T03:17:25;5.20;;;2.20;;
21862;SDS011;11096;51.338;12.524;2022-07-29T03:19:51;6.45;;;2.20;;
21862;SDS011;11096;51.338;12.524;2022-07-29T03:22:17;5.63;;;2.38;;
21862;SDS011;11096;51.338;12.524;2022-07-29T03:24:43;6.00;;;1.85;;
21862;SDS011;11096;51.338;12.524;2022-07-29T03:27:08;4.65;;;2.03;;
21862;SDS011;11096;51.338;12.524;2022-07-29T03:29:33;3.83;;;2.40;;
21862;SDS011;11096;51.338;12.524;2022-07-29T03:32:00;7.75;;;2.33;;
21862;SDS011;11096;51.338;12.524;2022-07-29T03:34:27;6.38;;;1.98;;
21862;SDS011;11096;51.338;12.524;2022-07-29T03:36:52;9.90;;;2.05;;
21862;SDS011;11096;51.338;12.524;2022-07-29T03:39:19;6.40;;;2.50;;
21862;SDS011;11096;51.338;12.524;2022-07-29T03:41:47;9.20;;;2.72;;
21862;SDS011;11096;51.338;12.524;2022-07-29T03:44:15;12.00;;;2.05;;
21862;SDS011;11096;51.338;12.524;2022-07-29T03:46:43;6.30;;;2.60;;
21862;SDS011;11096;51.338;12.524;2022-07-29T03:49:09;6.90;;;2.30;;
21862;SDS011;11096;51.338;12.524;2022-07-29T03:51:37;9.13;;;2.38;;
21862;SDS011;11096;51.338;12.524;2022-07-29T03:54:03;5.38;;;1.65;;
21862;SDS011;11096;51.338;12.524;2022-07-29T03:56:29;6.25;;;2.63;;
21862;SDS011;11096;51.338;12.524;2022-07-29T03:58:59;7.60;;;2.15;;
21862;SDS011;11096;51.338;12.524;2022-07-29T04:01:27;5.57;;;2.47;;
21862;SDS011;11096;51.338;12.524;2022-07-29T04:03:53;5.72;;;2.60;;
21862;SDS011;11096;51.338;12.524;2022-07-29T04:06:18;5.43;;;2.80;;
21862;SDS011;11096;51.338;12.524;2022-07-29T04:08:44;5.60;;;2.13;;
21862;SDS011;11096;51.338;12.524;2022-07-29T04:11:09;4.90;;;2.38;;
21862;SDS011;11096;51.338;12.524;2022-07-29T04:13:35;9.38;;;2.78;;
21862;SDS011;11096;51.338;12.524;2022-07-29T04:16:00;7.53;;;2.70;;
21862;SDS011;11096;51.338;12.524;2022-07-29T04:18:25;5.70;;;2.53;;
21862;SDS011;11096;51.338;12.524;2022-07-29T04:20:51;5.07;;;2.22;;
21862;SDS011;11096;51.338;12.524;2022-07-29T04:23:16;7.30;;;2.50;;
21862;SDS011;11096;51.338;12.524;2022-07-29T04:25:42;7.85;;;2.13;;
21862;SDS011;11096;51.338;12.524;2022-07-29T04:28:08;4.90;;;2.17;;
21862;SDS011;11096;51.338;12.524;2022-07-29T04:30:34;4.18;;;1.80;;
21862;SDS011;11096;51.338;12.524;2022-07-29T04:33:01;5.30;;;2.00;;
21862;SDS011;11096;51.338;12.524;2022-07-29T04:35:29;8.20;;;2.08;;
21862;SDS011;11096;51.338;12.524;2022-07-29T04:37:55;4.40;;;2.53;;
21862;SDS011;11096;51.338;12.524;2022-07-29T04:40:21;6.75;;;2.47;;
21862;SDS011;11096;51.338;12.524;2022-07-29T04:42:46;5.30;;;2.20;;
21862;SDS011;11096;51.338;12.524;2022-07-29T04:45:12;6.75;;;2.17;;
21862;SDS011;11096;51.338;12.524;2022-07-29T04:47:37;5.45;;;2.13;;
21862;SDS011;11096;51.338;12.524;2022-07-29T04:50:03;5.03;;;2.00;;
21862;SDS011;11096;51.338;12.524;2022-07-29T04:52:30;7.78;;;2.10;;
21862;SDS011;11096;51.338;12.524;2022-07-29T04:54:55;3.67;;;1.77;;
21862;SDS011;11096;51.338;12.524;2022-07-29T04:57:21;6.22;;;2.47;;
21862;SDS011;11096;51.338;12.524;2022-07-29T04:59:46;7.32;;;2.20;;
21862;SDS011;11096;51.338;12.524;2022-07-29T05:02:11;6.20;;;1.92;;
21862;SDS011;11096;51.338;12.524;2022-07-29T05:04:37;6.78;;;2.15;;
21862;SDS011;11096;51.338;12.524;2022-07-29T05:07:02;5.20;;;1.95;;
21862;SDS011;11096;51.338;12.524;2022-07-29T05:09:27;5.75;;;2.17;;
21862;SDS011;11096;51.338;12.524;2022-07-29T05:11:53;7.13;;;1.98;;
21862;SDS011;11096;51.338;12.524;2022-07-29T05:14:18;4.03;;;2.22;;
21862;SDS011;11096;51.338;12.524;2022-07-29T05:16:43;6.22;;;2.20;;
21862;SDS011;11096;51.338;12.524;2022-07-29T05:19:09;6.28;;;2.17;;
21862;SDS011;11096;51.338;12.524;2022-07-29T05:21:34;7.45;;;2.03;;
21862;SDS011;11096;51.338;12.524;2022-07-29T05:24:00;5.25;;;2.08;;
21862;SDS011;11096;51.338;12.524;2022-07-29T05:26:25;3.65;;;1.92;;
21862;SDS011;11096;51.338;12.524;2022-07-29T05:28:51;6.60;;;2.15;;
21862;SDS011;11096;51.338;12.524;2022-07-29T05:31:16;7.18;;;1.90;;
21862;SDS011;11096;51.338;12.524;2022-07-29T05:33:42;6.22;;;1.88;;
21862;SDS011;11096;51.338;12.524;2022-07-29T05:36:07;8.57;;;2.30;;
21862;SDS011;11096;51.338;12.524;2022-07-29T05:38:33;6.38;;;1.90;;
21862;SDS011;11096;51.338;12.524;2022-07-29T05:41:00;3.33;;;1.90;;
21862;SDS011;11096;51.338;12.524;2022-07-29T05:43:28;7.32;;;2.05;;
21862;SDS011;11096;51.338;12.524;2022-07-29T05:45:54;3.78;;;1.67;;
21862;SDS011;11096;51.338;12.524;2022-07-29T05:48:19;6.47;;;1.98;;
21862;SDS011;11096;51.338;12.524;2022-07-29T05:50:45;7.70;;;1.95;;
21862;SDS011;11096;51.338;12.524;2022-07-29T05:53:10;5.68;;;1.98;;
21862;SDS011;11096;51.338;12.524;2022-07-29T05:55:35;5.43;;;2.03;;
21862;SDS011;11096;51.338;12.524;2022-07-29T05:58:01;7.70;;;2.10;;
21862;SDS011;11096;51.338;12.524;2022-07-29T06:00:26;4.93;;;1.90;;
21862;SDS011;11096;51.338;12.524;2022-07-29T06:02:52;7.28;;;2.00;;
21862;SDS011;11096;51.338;12.524;2022-07-29T06:05:17;9.10;;;2.05;;
21862;SDS011;11096;51.338;12.524;2022-07-29T06:07:42;7.75;;;2.30;;
21862;SDS011;11096;51.338;12.524;2022-07-29T06:10:08;6.60;;;1.73;;
21862;SDS011;11096;51.338;12.524;2022-07-29T06:12:34;9.25;;;2.33;;
21862;SDS011;11096;51.338;12.524;2022-07-29T06:14:59;6.13;;;1.90;;
21862;SDS011;11096;51.338;12.524;2022-07-29T06:17:24;5.75;;;2.13;;
21862;SDS011;11096;51.338;12.524;2022-07-29T06:19:50;6.35;;;1.90;;
21862;SDS011;11096;51.338;12.524;2022-07-29T06:24:43;6.72;;;2.17;;
21862;SDS011;11096;51.338;12.524;2022-07-29T06:27:11;7.38;;;2.20;;
21862;SDS011;11096;51.338;12.524;2022-07-29T06:29:37;9.18;;;1.90;;
21862;SDS011;11096;51.338;12.524;2022-07-29T06:32:03;8.60;;;2.95;;
21862;SDS011;11096;51.338;12.524;2022-07-29T06:34:28;6.88;;;2.05;;
21862;SDS011;11096;51.338;12.524;2022-07-29T06:36:54;3.53;;;1.90;;
21862;SDS011;11096;51.338;12.524;2022-07-29T06:39:19;7.80;;;2.08;;
21862;SDS011;11096;51.338;12.524;2022-07-29T06:41:49;9.15;;;2.70;;
21862;SDS011;11096;51.338;12.524;2022-07-29T06:44:15;6.03;;;2.40;;
21862;SDS011;11096;51.338;12.524;2022-07-29T06:46:42;10.65;;;2.33;;
21862;SDS011;11096;51.338;12.524;2022-07-29T06:49:08;8.25;;;2.30;;
21862;SDS011;11096;51.338;12.524;2022-07-29T06:51:34;5.07;;;1.98;;
21862;SDS011;11096;51.338;12.524;2022-07-29T06:53:59;8.52;;;2.70;;
21862;SDS011;11096;51.338;12.524;2022-07-29T06:56:25;7.45;;;2.60;;
21862;SDS011;11096;51.338;12.524;2022-07-29T06:58:51;6.47;;;2.05;;
21862;SDS011;11096;51.338;12.524;2022-07-29T07:01:16;15.48;;;2.33;;
21862;SDS011;11096;51.338;12.524;2022-07-29T07:03:41;9.13;;;2.40;;
21862;SDS011;11096;51.338;12.524;2022-07-29T07:06:07;8.45;;;2.70;;
21862;SDS011;11096;51.338;12.524;2022-07-29T07:08:32;15.13;;;2.10;;
21862;SDS011;11096;51.338;12.524;2022-07-29T07:10:58;8.40;;;2.10;;
21862;SDS011;11096;51.338;12.524;2022-07-29T07:13:23;7.38;;;2.33;;
21862;SDS011;11096;51.338;12.524;2022-07-29T07:15:49;10.07;;;2.20;;
21862;SDS011;11096;51.338;12.524;2022-07-29T07:18:16;8.45;;;2.40;;
21862;SDS011;11096;51.338;12.524;2022-07-29T07:20:43;12.88;;;2.53;;
21862;SDS011;11096;51.338;12.524;2022-07-29T07:23:09;8.32;;;2.70;;
21862;SDS011;11096;51.338;12.524;2022-07-29T07:25:35;7.85;;;2.80;;
21862;SDS011;11096;51.338;12.524;2022-07-29T07:28:01;11.18;;;2.30;;
21862;SDS011;11096;51.338;12.524;2022-07-29T07:30:27;15.05;;;2.60;;
21862;SDS011;11096;51.338;12.524;2022-07-29T07:32:53;6.85;;;2.65;;
21862;SDS011;11096;51.338;12.524;2022-07-29T07:35:19;9.32;;;2.70;;
21862;SDS011;11096;51.338;12.524;2022-07-29T07:37:44;9.15;;;2.70;;
21862;SDS011;11096;51.338;12.524;2022-07-29T07:40:10;9.25;;;2.40;;
21862;SDS011;11096;51.338;12.524;2022-07-29T07:42:39;9.82;;;2.47;;
21862;SDS011;11096;51.338;12.524;2022-07-29T07:45:06;9.02;;;2.70;;
21862;SDS011;11096;51.338;12.524;2022-07-29T07:47:34;7.25;;;2.55;;
21862;SDS011;11096;51.338;12.524;2022-07-29T07:50:00;9.95;;;2.63;;
21862;SDS011;11096;51.338;12.524;2022-07-29T07:52:25;9.35;;;2.53;;
21862;SDS011;11096;51.338;12.524;2022-07-29T07:54:50;6.97;;;2.63;;
21862;SDS011;11096;51.338;12.524;2022-07-29T07:57:16;7.07;;;2.33;;
21862;SDS011;11096;51.338;12.524;2022-07-29T07:59:42;7.63;;;2.60;;
21862;SDS011;11096;51.338;12.524;2022-07-29T08:02:07;6.97;;;2.10;;
21862;SDS011;11096;51.338;12.524;2022-07-29T08:04:34;7.20;;;2.30;;
21862;SDS011;11096;51.338;12.524;2022-07-29T08:07:00;6.25;;;2.30;;
21862;SDS011;11096;51.338;12.524;2022-07-29T08:09:27;6.72;;;2.38;;
21862;SDS011;11096;51.338;12.524;2022-07-29T08:11:54;7.60;;;2.30;;
21862;SDS011;11096;51.338;12.524;2022-07-29T08:14:20;9.25;;;2.33;;
21862;SDS011;11096;51.338;12.524;2022-07-29T08:16:46;4.68;;;2.30;;
21862;SDS011;11096;51.338;12.524;2022-07-29T08:19:11;10.52;;;2.42;;
21862;SDS011;11096;51.338;12.524;2022-07-29T08:21:37;9.73;;;2.20;;
21862;SDS011;11096;51.338;12.524;2022-07-29T08:24:02;8.05;;;2.20;;
21862;SDS011;11096;51.338;12.524;2022-07-29T08:26:47;6.22;;;2.22;;
21862;SDS011;11096;51.338;12.524;2022-07-29T08:29:12;8.00;;;2.50;;
21862;SDS011;11096;51.338;12.524;2022-07-29T08:31:38;10.98;;;2.55;;
21862;SDS011;11096;51.338;12.524;2022-07-29T08:34:05;12.13;;;2.75;;
21862;SDS011;11096;51.338;12.524;2022-07-29T08:36:31;14.00;;;2.80;;
21862;SDS011;11096;51.338;12.524;2022-07-29T08:38:56;14.00;;;2.67;;
21862;SDS011;11096;51.338;12.524;2022-07-29T08:41:22;6.85;;;3.80;;
21862;SDS011;11096;51.338;12.524;2022-07-29T08:43:48;10.60;;;3.83;;
21862;SDS011;11096;51.338;12.524;2022-07-29T08:46:14;8.55;;;4.20;;
21862;SDS011;11096;51.338;12.524;2022-07-29T08:48:40;13.65;;;4.50;;
21862;SDS011;11096;51.338;12.524;2022-07-29T08:51:06;18.70;;;5.38;;
21862;SDS011;11096;51.338;12.524;2022-07-29T08:53:32;10.38;;;4.47;;
21862;SDS011;11096;51.338;12.524;2022-07-29T08:55:58;10.05;;;4.22;;
21862;SDS011;11096;51.338;12.524;2022-07-29T08:58:25;13.63;;;4.63;;
21862;SDS011;11096;51.338;12.524;2022-07-29T09:00:52;10.93;;;5.53;;
21862;SDS011;11096;51.338;12.524;2022-07-29T09:03:19;9.25;;;5.15;;
21862;SDS011;11096;51.338;12.524;2022-07-29T09:05:47;10.82;;;4.60;;
21862;SDS011;11096;51.338;12.524;2022-07-29T09:08:13;14.50;;;5.47;;
21862;SDS011;11096;51.338;12.524;2022-07-29T09:10:40;9.27;;;4.85;;
21862;SDS011;11096;51.338;12.524;2022-07-29T09:13:06;12.98;;;4.60;;
21862;SDS011;11096;51.338;12.524;2022-07-29T09:15:31;11.43;;;4.25;;
21862;SDS011;11096;51.338;12.524;2022-07-29T09:17:57;7.95;;;3.85;;
21862;SDS011;11096;51.338;12.524;2022-07-29T09:20:24;11.07;;;4.18;;
21862;SDS011;11096;51.338;12.524;2022-07-29T09:22:49;9.60;;;3.47;;
21862;SDS011;11096;51.338;12.524;2022-07-29T09:25:33;8.02;;;3.33;;
21862;SDS011;11096;51.338;12.524;2022-07-29T09:28:10;8.57;;;3.08;;
21862;SDS011;11096;51.338;12.524;2022-07-29T09:30:58;7.45;;;2.72;;
21862;SDS011;11096;51.338;12.524;2022-07-29T09:33:23;11.02;;;2.75;;
21862;SDS011;11096;51.338;12.524;2022-07-29T09:36:05;14.60;;;3.22;;
21862;SDS011;11096;51.338;12.524;2022-07-29T09:38:33;8.98;;;2.40;;
21862;SDS011;11096;51.338;12.524;2022-07-29T09:41:00;10.52;;;2.70;;
21862;SDS011;11096;51.338;12.524;2022-07-29T09:43:27;7.68;;;2.58;;
21862;SDS011;11096;51.338;12.524;2022-07-29T09:45:53;5.15;;;2.33;;
21862;SDS011;11096;51.338;12.524;2022-07-29T09:50:46;6.78;;;2.65;;
21862;SDS011;11096;51.338;12.524;2022-07-29T09:53:33;5.88;;;2.53;;
21862;SDS011;11096;51.338;12.524;2022-07-29T09:56:01;11.25;;;2.50;;
21862;SDS011;11096;51.338;12.524;2022-07-29T09:58:27;6.03;;;2.08;;
21862;SDS011;11096;51.338;12.524;2022-07-29T10:00:53;11.30;;;2.17;;
21862;SDS011;11096;51.338;12.524;2022-07-29T10:03:19;10.93;;;2.20;;
21862;SDS011;11096;51.338;12.524;2022-07-29T10:05:45;8.73;;;2.40;;
21862;SDS011;11096;51.338;12.524;2022-07-29T10:08:14;7.47;;;2.90;;
21862;SDS011;11096;51.338;12.524;2022-07-29T10:10:50;6.63;;;2.47;;
21862;SDS011;11096;51.338;12.524;2022-07-29T10:13:15;10.80;;;2.33;;
21862;SDS011;11096;51.338;12.524;2022-07-29T10:15:41;9.07;;;2.85;;
21862;SDS011;11096;51.338;12.524;2022-07-29T10:18:10;6.53;;;2.08;;
21862;SDS011;11096;51.338;12.524;2022-07-29T10:20:37;8.52;;;1.90;;
21862;SDS011;11096;51.338;12.524;2022-07-29T10:23:03;4.82;;;2.17;;
21862;SDS011;11096;51.338;12.524;2022-07-29T10:25:29;9.30;;;2.33;;
21862;SDS011;11096;51.338;12.524;2022-07-29T10:27:54;9.93;;;2.13;;
21862;SDS011;11096;51.338;12.524;2022-07-29T10:30:21;10.77;;;2.65;;
21862;SDS011;11096;51.338;12.524;2022-07-29T10:32:56;5.93;;;2.25;;
21862;SDS011;11096;51.338;12.524;2022-07-29T10:35:44;7.70;;;1.90;;
21862;SDS011;11096;51.338;12.524;2022-07-29T10:40:54;9.85;;;2.20;;
21862;SDS011;11096;51.338;12.524;2022-07-29T10:43:49;11.73;;;2.80;;
21862;SDS011;11096;51.338;12.524;2022-07-29T10:46:16;10.00;;;3.13;;
21862;SDS011;11096;51.338;12.524;2022-07-29T10:52:05;11.25;;;3.10;;
21862;SDS011;11096;51.338;12.524;2022-07-29T10:59:42;10.18;;;2.85;;
21862;SDS011;11096;51.338;12.524;2022-07-29T11:04:59;10.68;;;3.40;;
21862;SDS011;11096;51.338;12.524;2022-07-29T11:07:26;8.93;;;2.67;;
21862;SDS011;11096;51.338;12.524;2022-07-29T11:15:07;6.65;;;3.03;;
21862;SDS011;11096;51.338;12.524;2022-07-29T11:20:33;12.25;;;3.38;;
21862;SDS011;11096;51.338;12.524;2022-07-29T11:26:37;6.15;;;3.13;;
21862;SDS011;11096;51.338;12.524;2022-07-29T11:47:25;12.45;;;3.75;;
21862;SDS011;11096;51.338;12.524;2022-07-29T11:49:52;13.00;;;3.10;;
21862;SDS011;11096;51.338;12.524;2022-07-29T11:52:19;11.10;;;3.33;;
21862;SDS011;11096;51.338;12.524;2022-07-29T11:54:49;15.30;;;2.88;;
21862;SDS011;11096;51.338;12.524;2022-07-29T11:57:16;9.68;;;3.25;;
21862;SDS011;11096;51.338;12.524;2022-07-29T11:59:43;14.38;;;3.05;;
21862;SDS011;11096;51.338;12.524;2022-07-29T12:02:10;9.90;;;3.42;;
21862;SDS011;11096;51.338;12.524;2022-07-29T12:04:51;10.23;;;3.08;;
21862;SDS011;11096;51.338;12.524;2022-07-29T12:07:18;13.35;;;3.20;;
21862;SDS011;11096;51.338;12.524;2022-07-29T12:09:51;10.63;;;3.13;;
21862;SDS011;11096;51.338;12.524;2022-07-29T12:12:18;8.50;;;3.22;;
21862;SDS011;11096;51.338;12.524;2022-07-29T12:14:43;11.57;;;3.10;;
21862;SDS011;11096;51.338;12.524;2022-07-29T12:17:30;12.73;;;3.13;;
21862;SDS011;11096;51.338;12.524;2022-07-29T12:19:59;11.27;;;2.78;;
21862;SDS011;11096;51.338;12.524;2022-07-29T12:22:32;9.20;;;3.08;;
21862;SDS011;11096;51.338;12.524;2022-07-29T12:25:03;7.78;;;3.35;;
21862;SDS011;11096;51.338;12.524;2022-07-29T12:27:31;11.23;;;2.97;;
21862;SDS011;11096;51.338;12.524;2022-07-29T12:32:34;6.82;;;3.10;;
21862;SDS011;11096;51.338;12.524;2022-07-29T12:35:04;8.02;;;3.00;;
21862;SDS011;11096;51.338;12.524;2022-07-29T12:37:35;7.43;;;3.13;;
21862;SDS011;11096;51.338;12.524;2022-07-29T12:40:03;10.75;;;3.45;;
21862;SDS011;11096;51.338;12.524;2022-07-29T12:42:30;12.73;;;3.65;;
21862;SDS011;11096;51.338;12.524;2022-07-29T12:44:55;10.18;;;3.78;;
21862;SDS011;11096;51.338;12.524;2022-07-29T12:47:21;8.07;;;3.75;;
21862;SDS011;11096;51.338;12.524;2022-07-29T12:49:48;10.60;;;3.55;;
21862;SDS011;11096;51.338;12.524;2022-07-29T12:52:24;9.18;;;3.67;;
21862;SDS011;11096;51.338;12.524;2022-07-29T12:54:49;15.70;;;3.13;;
21862;SDS011;11096;51.338;12.524;2022-07-29T12:57:15;15.13;;;3.47;;
21862;SDS011;11096;51.338;12.524;2022-07-29T12:59:41;11.48;;;3.20;;
21862;SDS011;11096;51.338;12.524;2022-07-29T13:02:06;10.55;;;2.72;;
21862;SDS011;11096;51.338;12.524;2022-07-29T13:04:32;8.23;;;3.10;;
21862;SDS011;11096;51.338;12.524;2022-07-29T13:07:04;7.88;;;3.42;;
21862;SDS011;11096;51.338;12.524;2022-07-29T13:09:41;5.38;;;3.30;;
21862;SDS011;11096;51.338;12.524;2022-07-29T13:12:09;10.77;;;3.78;;
21862;SDS011;11096;51.338;12.524;2022-07-29T13:14:40;6.85;;;3.35;;
21862;SDS011;11096;51.338;12.524;2022-07-29T13:17:13;8.02;;;3.45;;
21862;SDS011;11096;51.338;12.524;2022-07-29T13:22:07;9.50;;;3.47;;
21862;SDS011;11096;51.338;12.524;2022-07-29T13:24:55;5.22;;;3.45;;
21862;SDS011;11096;51.338;12.524;2022-07-29T13:27:23;11.07;;;3.63;;
21862;SDS011;11096;51.338;12.524;2022-07-29T13:29:54;6.90;;;3.47;;
21862;SDS011;11096;51.338;12.524;2022-07-29T13:32:22;12.50;;;3.40;;
21862;SDS011;11096;51.338;12.524;2022-07-29T13:34:50;8.02;;;3.17;;
21862;SDS011;11096;51.338;12.524;2022-07-29T13:37:15;7.65;;;3.17;;
21862;SDS011;11096;51.338;12.524;2022-07-29T13:39:41;7.47;;;3.22;;
21862;SDS011;11096;51.338;12.524;2022-07-29T13:42:08;12.43;;;3.70;;
21862;SDS011;11096;51.338;12.524;2022-07-29T13:44:33;8.43;;;3.30;;
21862;SDS011;11096;51.338;12.524;2022-07-29T13:46:59;8.15;;;3.83;;
21862;SDS011;11096;51.338;12.524;2022-07-29T13:49:25;13.98;;;3.28;;
21862;SDS011;11096;51.338;12.524;2022-07-29T13:51:50;5.70;;;3.22;;
21862;SDS011;11096;51.338;12.524;2022-07-29T13:54:16;6.75;;;3.28;;
21862;SDS011;11096;51.338;12.524;2022-07-29T13:56:41;9.70;;;3.40;;
21862;SDS011;11096;51.338;12.524;2022-07-29T13:59:07;9.38;;;3.40;;
21862;SDS011;11096;51.338;12.524;2022-07-29T14:01:33;8.18;;;3.33;;
21862;SDS011;11096;51.338;12.524;2022-07-29T14:03:59;6.95;;;3.20;;
21862;SDS011;11096;51.338;12.524;2022-07-29T14:06:24;7.15;;;3.50;;
21862;SDS011;11096;51.338;12.524;2022-07-29T14:08:50;5.68;;;3.00;;
21862;SDS011;11096;51.338;12.524;2022-07-29T14:11:15;4.95;;;2.67;;
21862;SDS011;11096;51.338;12.524;2022-07-29T14:13:40;8.52;;;3.58;;
21862;SDS011;11096;51.338;12.524;2022-07-29T14:16:06;8.88;;;3.47;;
21862;SDS011;11096;51.338;12.524;2022-07-29T14:18:32;8.57;;;3.42;;
21862;SDS011;11096;51.338;12.524;2022-07-29T14:20:57;5.75;;;3.13;;
21862;SDS011;11096;51.338;12.524;2022-07-29T14:23:23;7.93;;;3.20;;
21862;SDS011;11096;51.338;12.524;2022-07-29T14:25:48;13.93;;;3.13;;
21862;SDS011;11096;51.338;12.524;2022-07-29T14:28:13;10.30;;;3.35;;
21862;SDS011;11096;51.338;12.524;2022-07-29T14:30:39;8.52;;;3.72;;
21862;SDS011;11096;51.338;12.524;2022-07-29T14:33:04;7.28;;;3.55;;
21862;SDS011;11096;51.338;12.524;2022-07-29T14:35:30;6.20;;;2.97;;
21862;SDS011;11096;51.338;12.524;2022-07-29T14:37:55;7.38;;;3.47;;
21862;SDS011;11096;51.338;12.524;2022-07-29T14:40:20;11.57;;;3.30;;
21862;SDS011;11096;51.338;12.524;2022-07-29T14:42:46;6.53;;;3.35;;
21862;SDS011;11096;51.338;12.524;2022-07-29T14:45:11;8.77;;;3.22;;
21862;SDS011;11096;51.338;12.524;2022-07-29T14:47:37;9.15;;;3.72;;
21862;SDS011;11096;51.338;12.524;2022-07-29T14:50:03;7.65;;;3.25;;
21862;SDS011;11096;51.338;12.524;2022-07-29T14:52:29;5.07;;;3.45;;
21862;SDS011;11096;51.338;12.524;2022-07-29T14:54:55;13.38;;;3.58;;
21862;SDS011;11096;51.338;12.524;2022-07-29T14:57:20;9.27;;;3.17;;
21862;SDS011;11096;51.338;12.524;2022-07-29T14:59:45;10.90;;;3.60;;
21862;SDS011;11096;51.338;12.524;2022-07-29T15:02:11;14.75;;;3.80;;
21862;SDS011;11096;51.338;12.524;2022-07-29T15:04:36;9.75;;;3.17;;
21862;SDS011;11096;51.338;12.524;2022-07-29T15:07:02;7.00;;;3.00;;
21862;SDS011;11096;51.338;12.524;2022-07-29T15:09:27;8.38;;;3.20;;
21862;SDS011;11096;51.338;12.524;2022-07-29T15:11:53;6.75;;;3.20;;
21862;SDS011;11096;51.338;12.524;2022-07-29T15:14:18;7.20;;;3.60;;
21862;SDS011;11096;51.338;12.524;2022-07-29T15:16:44;7.80;;;3.20;;
21862;SDS011;11096;51.338;12.524;2022-07-29T15:19:10;4.50;;;3.05;;
21862;SDS011;11096;51.338;12.524;2022-07-29T15:21:35;5.75;;;3.10;;
21862;SDS011;11096;51.338;12.524;2022-07-29T15:24:00;7.43;;;3.35;;
21862;SDS011;11096;51.338;12.524;2022-07-29T15:26:26;8.68;;;3.20;;
21862;SDS011;11096;51.338;12.524;2022-07-29T15:28:51;8.45;;;3.85;;
21862;SDS011;11096;51.338;12.524;2022-07-29T15:31:16;10.43;;;3.97;;
21862;SDS011;11096;51.338;12.524;2022-07-29T15:33:43;6.97;;;3.40;;
21862;SDS011;11096;51.338;12.524;2022-07-29T15:36:09;4.75;;;3.10;;
21862;SDS011;11096;51.338;12.524;2022-07-29T15:38:36;14.50;;;4.10;;
21862;SDS011;11096;51.338;12.524;2022-07-29T15:41:02;7.22;;;2.58;;
21862;SDS011;11096;51.338;12.524;2022-07-29T15:43:27;8.20;;;3.35;;